Time;durP1;ratioP1;P1;durP2;ratioP2;P2;SDS_P1;SDS_P2;PMS_P1;PMS_P2;Temp;Humidity;BMP_temperature;BMP_pressure;BME280_temperature;BME280_humidity;BME280_pressure;Samples;Min_cycle;Max_cycle;Signal;HPM_P1;HPM_P2
2023/03/30 00:02:08;;;;;;;1.93;1.60;;;;;;;11.62;84.38;100552.41;5011858;28;20057;-83
2023/03/30 00:04:33;;;;;;;2.50;1.77;;;;;;;11.67;83.93;100544.50;5012731;28;20029;-83
2023/03/30 00:06:59;;;;;;;2.00;1.80;;;;;;;11.69;83.86;100529.72;5012480;28;20029;-83
2023/03/30 00:09:31;;;;;;;2.85;1.63;;;;;;;11.69;83.83;100524.53;5011794;28;20026;-83
2023/03/30 00:12:02;;;;;;;2.85;1.50;;;;;;;11.73;83.11;100526.16;5012562;28;20030;-82
2023/03/30 00:14:30;;;;;;;1.77;1.60;;;;;;;11.76;83.02;100517.44;5012924;28;20089;-83
2023/03/30 00:16:58;;;;;;;1.60;1.50;;;;;;;11.77;82.36;100509.59;5014390;28;20022;-83
2023/03/30 00:19:25;;;;;;;2.55;1.70;;;;;;;11.78;83.13;100508.69;5016760;28;20125;-83
2023/03/30 00:21:50;;;;;;;2.22;1.50;;;;;;;11.77;82.65;100507.00;5016086;28;20022;-83
2023/03/30 00:24:18;;;;;;;1.87;1.60;;;;;;;11.77;83.14;100512.19;5015664;28;20040;-83
2023/03/30 00:26:44;;;;;;;1.00;1.00;;;;;;;11.74;83.05;100513.13;5016365;28;20470;-83
2023/03/30 00:29:09;;;;;;;1.57;1.47;;;;;;;11.74;83.50;100505.31;5016143;28;20097;-83
2023/03/30 00:31:34;;;;;;;1.00;1.00;;;;;;;11.74;83.44;100494.94;5015676;28;20121;-83
2023/03/30 00:34:02;;;;;;;2.07;1.30;;;;;;;11.77;83.59;100504.38;5016441;28;20045;-83
2023/03/30 00:36:27;;;;;;;1.92;1.30;;;;;;;11.75;82.86;100503.56;5016326;28;20045;-84
2023/03/30 00:38:53;;;;;;;1.10;1.10;;;;;;;11.77;83.40;100499.19;5015094;28;20026;-84
2023/03/30 00:41:18;;;;;;;1.47;1.37;;;;;;;11.76;83.07;100481.03;5016156;28;20108;-83
2023/03/30 00:44:04;;;;;;;0.80;0.80;;;;;;;11.73;83.21;100480.22;5015539;28;20022;-83
2023/03/30 00:46:31;;;;;;;1.77;1.48;;;;;;;11.72;82.88;100465.50;5016404;28;20057;-83
2023/03/30 00:48:58;;;;;;;;;;;;;;;11.75;83.08;100474.97;5016421;28;20041;-83
2023/03/30 00:51:25;;;;;;;1.80;1.70;;;;;;;11.73;83.34;100469.81;5015278;28;19970;-83
2023/03/30 00:53:55;;;;;;;1.70;1.45;;;;;;;11.69;82.78;100449.16;5015859;28;20088;-83
2023/03/30 00:56:25;;;;;;;1.48;1.38;;;;;;;11.61;82.75;100453.66;5016128;28;20124;-83
2023/03/30 00:58:53;;;;;;;1.42;1.33;;;;;;;11.57;82.96;100456.38;5014938;28;20474;-83
2023/03/30 01:01:24;;;;;;;2.65;1.45;;;;;;;11.55;83.28;100455.56;5016045;28;20026;-83
2023/03/30 01:03:50;;;;;;;1.70;1.60;;;;;;;11.51;82.75;100446.13;5015791;28;20409;-83
2023/03/30 01:06:28;;;;;;;1.60;1.45;;;;;;;11.50;82.92;100456.56;5015295;28;20026;-83
2023/03/30 01:08:56;;;;;;;1.35;1.23;;;;;;;11.47;82.61;100454.03;5015362;28;20060;-83
2023/03/30 01:11:22;;;;;;;1.58;1.10;;;;;;;11.46;83.04;100460.13;5015696;28;20156;-83
2023/03/30 01:13:52;;;;;;;1.20;1.10;;;;;;;11.42;82.73;100447.22;5015067;28;20521;-83
2023/03/30 01:16:47;;;;;;;0.85;0.82;;;;;;;11.42;82.62;100447.22;5015813;28;20292;-83
2023/03/30 01:19:21;;;;;;;1.40;1.05;;;;;;;11.40;82.63;100455.94;5014835;28;20033;-83
2023/03/30 01:22:25;;;;;;;0.63;0.63;;;;;;;11.37;82.44;100454.25;5015637;28;20029;-83
2023/03/30 01:25:10;;;;;;;0.77;0.77;;;;;;;11.33;82.28;100464.78;4993165;28;20050;-83
2023/03/30 01:28:13;;;;;;;0.75;0.60;;;;;;;11.30;82.33;100464.84;5013853;28;20429;-83
2023/03/30 01:31:00;;;;;;;1.23;1.13;;;;;;;11.28;82.21;100460.53;5015017;28;20040;-83
2023/03/30 01:34:02;;;;;;;1.40;1.08;;;;;;;11.24;82.73;100456.31;5014597;28;20029;-83
2023/03/30 01:36:49;;;;;;;0.90;0.90;;;;;;;11.23;83.05;100464.13;5015313;28;20026;-83
2023/03/30 01:39:32;;;;;;;0.80;0.80;;;;;;;11.22;82.99;100444.25;5015367;28;20042;-83
2023/03/30 01:41:59;;;;;;;0.85;0.85;;;;;;;11.23;83.20;100446.81;5014270;28;20448;-83
2023/03/30 01:44:35;;;;;;;1.20;1.10;;;;;;;11.23;82.84;100443.34;5015058;28;20029;-83
2023/03/30 01:47:18;;;;;;;1.15;1.05;;;;;;;11.23;82.65;100432.97;5014066;28;20370;-83
2023/03/30 01:50:04;;;;;;;3.58;1.38;;;;;;;11.22;82.75;100421.72;5015093;28;20030;-83
2023/03/30 01:52:39;;;;;;;2.45;1.88;;;;;;;11.32;82.59;100422.34;5014784;28;20120;-83
2023/03/30 01:55:10;;;;;;;3.15;1.90;;;;;;;11.37;82.39;100415.28;5013848;28;20053;-83
2023/03/30 01:57:46;;;;;;;3.50;2.10;;;;;;;11.42;82.19;100426.44;5015039;28;20029;-83
2023/03/30 02:00:16;;;;;;;3.55;2.10;;;;;;;11.51;81.64;100443.50;5014387;28;20032;-82
2023/03/30 02:02:53;;;;;;;2.55;2.05;;;;;;;11.63;81.44;100447.56;5013578;28;20470;-83
2023/03/30 02:05:21;;;;;;;2.92;2.00;;;;;;;11.72;81.53;100449.91;5014443;28;20029;-83
2023/03/30 02:07:51;;;;;;;2.05;1.60;;;;;;;11.77;81.14;100435.91;5014475;28;20080;-82
2023/03/30 02:10:21;;;;;;;3.03;1.77;;;;;;;11.75;81.43;100443.78;5014104;28;20097;-83
2023/03/30 02:12:47;;;;;;;1.90;1.70;;;;;;;11.73;80.97;100445.56;5014327;28;20022;-83
2023/03/30 02:15:15;;;;;;;3.03;2.00;;;;;;;11.75;80.91;100448.97;5013613;28;20393;-83
2023/03/30 02:17:41;;;;;;;3.45;2.08;;;;;;;11.79;80.67;100444.53;5014403;28;20389;-83
2023/03/30 02:20:11;;;;;;;4.53;2.30;;;;;;;11.87;80.77;100440.00;5014033;28;20021;-83
2023/03/30 02:22:37;;;;;;;2.10;1.80;;;;;;;11.95;80.60;100440.66;5013848;28;20053;-83
2023/03/30 02:25:04;;;;;;;3.67;1.80;;;;;;;12.00;80.45;100428.38;5014073;28;20405;-83
2023/03/30 02:27:31;;;;;;;2.50;2.03;;;;;;;12.04;80.64;100431.78;5014240;28;20338;-83
2023/03/30 02:29:59;;;;;;;2.88;1.90;;;;;;;12.06;79.98;100427.34;5013141;28;20026;-83
2023/03/30 02:32:30;;;;;;;3.15;1.75;;;;;;;12.05;80.67;100434.31;5009042;28;20042;-83
2023/03/30 02:35:17;;;;;;;2.15;1.38;;;;;;;12.03;80.64;100437.88;5014201;28;20049;-83
2023/03/30 02:37:54;;;;;;;2.75;1.50;;;;;;;12.00;80.86;100440.53;5013309;28;20469;-83
2023/03/30 02:40:31;;;;;;;1.92;1.33;;;;;;;11.98;81.08;100437.13;5013948;28;20040;-83
2023/03/30 02:43:11;;;;;;;2.15;1.40;;;;;;;11.92;80.14;100429.47;5013517;28;20124;-82
2023/03/30 02:45:41;;;;;;;1.90;1.42;;;;;;;11.97;81.00;100432.78;5013176;28;20421;-83
2023/03/30 02:48:34;;;;;;;1.40;1.30;;;;;;;11.96;81.06;100428.47;5013689;28;20466;-83
2023/03/30 02:51:08;;;;;;;1.13;1.10;;;;;;;11.96;81.02;100431.94;5012848;28;20044;-83
2023/03/30 02:53:56;;;;;;;1.23;0.90;;;;;;;11.96;81.09;100433.69;5013862;28;20034;-83
2023/03/30 02:56:36;;;;;;;0.93;0.93;;;;;;;11.96;81.00;100436.28;5013702;28;20385;-83
2023/03/30 02:59:18;;;;;;;0.80;0.80;;;;;;;11.95;81.42;100429.38;5012853;28;20109;-83
2023/03/30 03:01:53;;;;;;;1.15;1.10;;;;;;;11.95;81.21;100424.16;5013688;28;20038;-83
2023/03/30 03:04:21;;;;;;;3.20;1.33;;;;;;;11.94;81.45;100425.06;5013561;28;20397;-82
2023/03/30 03:06:51;;;;;;;1.25;1.15;;;;;;;11.96;81.25;100428.47;5013446;28;20402;-83
2023/03/30 03:09:23;;;;;;;2.17;1.17;;;;;;;11.97;81.22;100420.66;5013549;28;20108;-83
2023/03/30 03:11:51;;;;;;;1.55;1.05;;;;;;;11.96;81.06;100415.47;5012387;28;20030;-83
2023/03/30 03:14:17;;;;;;;1.48;1.20;;;;;;;11.97;80.94;100423.25;5013188;28;20549;-83
2023/03/30 03:16:42;;;;;;;1.60;1.23;;;;;;;12.00;81.10;100420.56;5013638;28;20108;-83
2023/03/30 03:19:09;;;;;;;2.13;1.57;;;;;;;12.02;80.73;100426.59;5012489;28;20087;-83
2023/03/30 03:21:35;;;;;;;2.28;1.42;;;;;;;12.05;80.59;100421.31;5013254;28;20034;-83
2023/03/30 03:24:01;;;;;;;3.13;1.58;;;;;;;12.09;80.18;100424.69;5012902;28;20134;-83
2023/03/30 03:26:26;;;;;;;2.30;1.40;;;;;;;12.14;80.25;100420.22;5012607;28;20478;-83
2023/03/30 03:28:52;;;;;;;1.23;1.10;;;;;;;12.16;80.26;100415.78;5012785;28;20033;-83
2023/03/30 03:31:17;;;;;;;1.30;1.20;;;;;;;12.18;80.31;100411.41;5013446;28;20151;-83
2023/03/30 03:33:43;;;;;;;1.50;1.40;;;;;;;12.17;80.07;100414.91;5012591;28;20030;-83
2023/03/30 03:36:11;;;;;;;1.87;1.40;;;;;;;12.17;80.13;100427.06;5013044;28;20021;-83
2023/03/30 03:38:37;;;;;;;0.90;0.90;;;;;;;12.16;80.39;100417.56;5013202;28;20048;-83
2023/03/30 03:41:03;;;;;;;1.50;1.20;;;;;;;12.16;80.23;100417.56;5012087;28;20034;-83
2023/03/30 03:43:29;;;;;;;0.95;0.90;;;;;;;12.12;80.31;100409.00;5013044;28;20029;-83
2023/03/30 03:45:55;;;;;;;1.67;1.10;;;;;;;12.11;80.69;100406.41;5012892;28;20101;-83
2023/03/30 03:48:23;;;;;;;1.07;0.70;;;;;;;12.10;81.11;100399.53;5012576;28;20533;-83
2023/03/30 03:50:50;;;;;;;0.95;0.90;;;;;;;12.09;80.72;100405.63;5012154;28;20105;-83
2023/03/30 03:53:16;;;;;;;1.65;1.55;;;;;;;12.08;80.46;100399.56;5012887;28;20481;-83
2023/03/30 03:55:42;;;;;;;1.60;1.40;;;;;;;12.07;80.34;100397.84;5012009;28;20026;-83
2023/03/30 03:58:07;;;;;;;1.25;1.10;;;;;;;12.08;80.33;100403.94;5012342;28;20018;-83
2023/03/30 04:00:33;;;;;;;1.83;1.50;;;;;;;12.05;79.95;100399.63;5013016;28;20045;-84
2023/03/30 04:02:59;;;;;;;2.03;1.17;;;;;;;12.02;80.59;100389.34;5018936;22;20152;-83
2023/03/30 04:05:25;;;;;;;1.53;1.30;;;;;;;12.05;80.21;100399.63;5012958;28;20082;-83
2023/03/30 04:07:52;;;;;;;2.17;1.42;;;;;;;12.04;80.68;100401.41;5012099;28;20030;-83
2023/03/30 04:10:17;;;;;;;;;;;;;;;12.04;79.93;100392.75;5020282;22;20049;-83
2023/03/30 04:12:43;;;;;;;1.53;1.23;;;;;;;12.04;79.99;100398.81;5013116;28;19914;-83
2023/03/30 04:15:08;;;;;;;2.70;1.60;;;;;;;12.06;80.70;100390.94;5011630;28;20505;-84
2023/03/30 04:17:34;;;;;;;2.67;1.70;;;;;;;12.01;81.04;100393.69;5012538;28;20037;-83
2023/03/30 04:20:01;;;;;;;2.23;1.60;;;;;;;11.98;81.17;100387.72;5012030;28;20022;-83
2023/03/30 04:22:31;;;;;;;2.08;1.50;;;;;;;11.96;81.51;100389.47;5011959;28;20046;-83
2023/03/30 04:24:58;;;;;;;1.50;1.40;;;;;;;11.88;81.55;100376.69;5012320;28;20030;-83
2023/03/30 04:27:24;;;;;;;2.50;1.60;;;;;;;11.85;81.67;100379.38;5012644;28;20501;-83
2023/03/30 04:29:50;;;;;;;1.23;1.10;;;;;;;11.78;81.97;100381.31;5011823;28;20041;-83
2023/03/30 04:32:19;;;;;;;1.80;1.20;;;;;;;11.75;82.64;100378.78;5012737;28;20044;-83
2023/03/30 04:34:53;;;;;;;1.13;1.10;;;;;;;11.72;82.90;100378.84;5012597;28;20260;-83
2023/03/30 04:37:29;;;;;;;1.30;1.20;;;;;;;11.68;82.70;100370.28;5011803;28;20084;-83
2023/03/30 04:40:05;;;;;;;1.67;1.10;;;;;;;11.67;82.80;100372.94;5012550;28;20030;-83
2023/03/30 04:42:32;;;;;;;1.15;1.08;;;;;;;11.63;82.65;100373.91;5012673;28;20034;-83
2023/03/30 04:44:59;;;;;;;1.30;1.08;;;;;;;11.60;82.95;100377.47;5011595;28;20026;-83
2023/03/30 04:47:25;;;;;;;1.40;1.30;;;;;;;11.56;83.42;100353.31;5012574;28;20381;-83
2023/03/30 04:49:51;;;;;;;1.20;1.10;;;;;;;11.54;82.98;100368.06;5011285;28;20509;-83
2023/03/30 04:52:17;;;;;;;1.13;0.90;;;;;;;11.53;83.13;100365.53;5012601;28;20030;-83
2023/03/30 04:54:42;;;;;;;0.73;0.73;;;;;;;11.47;83.02;100356.16;5012475;28;20034;-83
2023/03/30 04:57:07;;;;;;;1.10;1.00;;;;;;;11.46;83.23;100369.16;5011480;28;20160;-83
2023/03/30 04:59:32;;;;;;;1.27;0.90;;;;;;;11.44;83.43;100366.63;5012347;28;20087;-83
2023/03/30 05:01:58;;;;;;;0.40;0.40;;;;;;;11.42;83.40;100376.19;5012142;28;20026;-83
2023/03/30 05:04:23;;;;;;;0.63;0.63;;;;;;;11.39;83.79;100376.28;5014588;28;20493;-83
2023/03/30 05:06:48;;;;;;;0.87;0.87;;;;;;;11.39;83.87;100387.53;5015529;28;20026;-83
2023/03/30 05:09:14;;;;;;;0.90;0.90;;;;;;;11.34;84.77;100410.16;5015709;28;20056;-83
2023/03/30 05:11:39;;;;;;;1.67;1.50;;;;;;;11.33;86.46;100421.44;5015257;28;20034;-83
2023/03/30 05:14:05;;;;;;;3.10;1.87;;;;;;;11.33;90.46;100420.59;5015637;28;20153;-85
2023/03/30 05:16:30;;;;;;;5.07;2.23;;;;;;;11.30;88.99;100410.28;5015837;28;20489;-87
2023/03/30 05:18:56;;;;;;;5.30;2.33;;;;;;;11.20;91.40;100413.13;5014463;28;20038;-86
2023/03/30 05:21:21;;;;;;;4.57;2.40;;;;;;;11.09;92.66;100420.31;5015655;28;20036;-86
2023/03/30 05:23:47;;;;;;;4.53;2.17;;;;;;;11.03;92.67;100430.88;5015691;28;20018;-86
2023/03/30 05:26:12;;;;;;;3.63;2.00;;;;;;;10.93;93.75;100438.00;5014931;28;20374;-86
2023/03/30 05:28:37;;;;;;;5.33;2.00;;;;;;;10.87;94.38;100432.94;5015696;28;20208;-87
2023/03/30 05:31:03;;;;;;;3.17;2.00;;;;;;;10.80;95.78;100437.44;5015433;28;20061;-87
2023/03/30 05:33:28;;;;;;;3.67;2.00;;;;;;;10.72;93.70;100432.44;5015051;28;20461;-88
2023/03/30 05:35:54;;;;;;;4.83;2.17;;;;;;;10.70;95.72;100431.59;5015549;28;20034;-88
2023/03/30 05:38:19;;;;;;;4.37;2.23;;;;;;;10.68;94.94;100437.72;5015731;28;20054;-88
2023/03/30 05:40:45;;;;;;;3.27;2.00;;;;;;;10.64;93.61;100440.38;5014993;28;20087;-87
2023/03/30 05:43:13;;;;;;;4.30;2.30;;;;;;;10.61;97.19;100439.59;5015712;28;20044;-88
2023/03/30 05:45:38;;;;;;;4.35;2.28;;;;;;;10.62;97.36;100439.56;5014483;28;20466;-87
2023/03/30 05:48:05;;;;;;;3.00;2.23;;;;;;;10.61;96.92;100443.03;5014757;28;20137;-87
2023/03/30 05:50:33;;;;;;;5.32;2.40;;;;;;;10.60;96.98;100443.06;5015696;28;20414;-88
2023/03/30 05:52:59;;;;;;;4.30;2.30;;;;;;;10.61;96.09;100431.81;5015153;28;20504;-90
2023/03/30 05:55:24;;;;;;;3.50;2.17;;;;;;;10.53;95.67;100425.94;5015464;28;20025;-90
2023/03/30 05:57:50;;;;;;;3.13;2.20;;;;;;;10.55;98.94;100427.59;5015373;28;20056;-89
2023/03/30 06:00:15;;;;;;;2.73;2.17;;;;;;;10.52;99.79;100426.81;5016064;28;20018;-89
2023/03/30 06:02:43;;;;;;;4.13;2.10;;;;;;;10.53;98.67;100434.56;5015625;28;20541;-90
2023/03/30 06:05:08;;;;;;;5.47;2.35;;;;;;;10.48;100.00;100447.63;5015715;28;20109;-91
2023/03/30 06:07:34;;;;;;;5.47;2.47;;;;;;;10.47;100.00;100448.53;5015258;28;20030;-88
2023/03/30 06:10:00;;;;;;;7.60;2.47;;;;;;;10.44;100.00;100443.41;5014384;28;20065;-84
2023/03/30 06:12:26;;;;;;;5.27;2.30;;;;;;;10.40;100.00;100435.72;5015599;28;20537;-90
2023/03/30 06:14:51;;;;;;;3.70;2.47;;;;;;;10.38;100.00;100434.88;4997673;28;20269;-90
2023/03/30 06:17:17;;;;;;;4.53;2.20;;;;;;;10.41;100.00;100450.38;5013930;28;20073;-89
2023/03/30 06:19:42;;;;;;;4.40;2.03;;;;;;;10.40;100.00;100449.56;5015351;28;20093;-88
2023/03/30 06:22:08;;;;;;;4.93;2.30;;;;;;;10.39;100.00;100453.03;5015066;28;20029;-88
2023/03/30 06:24:33;;;;;;;6.20;2.80;;;;;;;10.39;100.00;100446.97;5014949;28;20525;-89
2023/03/30 06:27:00;;;;;;;4.67;2.37;;;;;;;10.36;100.00;100446.09;5014776;28;20022;-89
2023/03/30 06:29:26;;;;;;;5.97;2.63;;;;;;;10.38;100.00;100446.13;5014397;28;20022;-86
2023/03/30 06:31:51;;;;;;;5.47;2.40;;;;;;;10.41;100.00;100448.66;5014695;28;20030;-91
2023/03/30 06:34:16;;;;;;;4.83;2.47;;;;;;;10.45;100.00;100462.44;5015332;28;20021;-90
2023/03/30 06:36:42;;;;;;;6.83;2.93;;;;;;;10.49;100.00;100459.72;5015521;28;20474;-91
2023/03/30 06:39:08;;;;;;;6.65;2.53;;;;;;;10.54;100.00;100476.91;5015516;28;20366;-90
2023/03/30 06:41:33;;;;;;;4.53;2.43;;;;;;;10.57;100.00;100463.91;5015302;28;20101;-91
2023/03/30 06:43:59;;;;;;;6.80;2.67;;;;;;;10.58;100.00;100475.97;5024193;22;20113;-91
2023/03/30 06:46:25;;;;;;;7.20;2.40;;;;;;;10.64;100.00;100468.94;5034662;28;20053;-91
2023/03/30 06:48:50;;;;;;;7.30;2.67;;;;;;;10.57;100.00;100466.50;5034909;28;20485;-91
2023/03/30 06:51:16;;;;;;;3.90;2.20;;;;;;;10.55;100.00;100474.31;5034982;28;20055;-90
2023/03/30 06:53:41;;;;;;;6.67;2.50;;;;;;;10.58;100.00;100476.84;5034960;28;20017;-90
2023/03/30 06:56:07;;;;;;;3.00;2.00;;;;;;;10.66;100.00;100474.06;5034355;28;20045;-91
2023/03/30 06:58:33;;;;;;;5.23;2.60;;;;;;;10.75;100.00;100468.69;5034859;28;20049;-90
2023/03/30 07:01:11;;;;;;;5.30;2.00;;;;;;;11.98;100.00;100463.13;5034689;28;20029;-91
2023/03/30 07:03:36;;;;;;;8.45;2.50;;;;;;;14.07;95.50;100467.06;5034343;28;20025;-91
2023/03/30 07:06:02;;;;;;;4.83;1.90;;;;;;;15.97;85.60;100463.13;5034843;28;20458;-91
2023/03/30 07:08:27;;;;;;;4.03;1.70;;;;;;;17.87;84.60;100475.06;5034781;28;20117;-91
2023/03/30 07:10:53;;;;;;;4.50;1.97;;;;;;;19.09;70.21;100480.81;5034164;28;20085;-92
2023/03/30 07:13:18;;;;;;;3.13;1.60;;;;;;;19.73;70.35;100482.44;5034797;28;20021;-91
2023/03/30 07:15:44;;;;;;;3.20;1.70;;;;;;;20.28;70.79;100486.19;5034311;28;20159;-90
2023/03/30 07:18:10;;;;;;;2.85;1.40;;;;;;;20.21;63.34;100490.97;5034044;28;20051;-89
2023/03/30 07:20:36;;;;;;;5.63;1.80;;;;;;;18.89;63.42;100481.09;5034022;28;20021;-88
2023/03/30 07:23:02;;;;;;;6.00;2.10;;;;;;;17.41;68.51;100483.53;5034400;28;20553;-92
2023/03/30 07:25:27;;;;;;;4.45;1.75;;;;;;;16.41;75.68;100485.59;5034015;28;20032;-92
2023/03/30 07:27:53;;;;;;;4.37;2.00;;;;;;;15.48;76.65;100493.03;5028586;28;20037;-92
2023/03/30 07:30:18;;;;;;;5.67;1.93;;;;;;;14.79;80.04;100496.63;5034018;28;20026;-91
2023/03/30 07:32:44;;;;;;;3.53;1.73;;;;;;;14.32;82.36;100493.09;5033805;28;20025;-92
2023/03/30 07:35:09;;;;;;;7.80;1.90;;;;;;;13.95;82.05;100488.34;5034351;28;20520;-92
2023/03/30 07:37:37;;;;;;;11.27;2.77;;;;;;;13.48;83.06;100504.72;5034140;28;20603;-92
2023/03/30 07:40:06;;;;;;;6.32;2.20;;;;;;;13.17;84.94;100495.25;5033074;28;20500;-92
2023/03/30 07:42:31;;;;;;;5.60;2.10;;;;;;;12.95;86.12;100498.50;5033817;28;20057;-93
2023/03/30 07:44:56;;;;;;;5.97;2.20;;;;;;;12.79;87.34;100499.00;5033429;28;20536;-92
2023/03/30 07:47:22;;;;;;;5.37;2.20;;;;;;;12.64;87.35;100508.13;5033513;28;20116;-92
2023/03/30 07:49:47;;;;;;;4.63;1.90;;;;;;;12.64;88.80;100507.25;5014622;28;20385;-92
2023/03/30 07:52:13;;;;;;;8.93;2.40;;;;;;;12.44;88.44;100516.50;5014411;28;20022;-91
2023/03/30 07:54:38;;;;;;;8.37;2.17;;;;;;;12.42;88.89;100513.06;5013536;28;20157;-92
2023/03/30 07:57:03;;;;;;;9.53;2.43;;;;;;;12.30;89.79;100522.09;5019876;28;20517;-92
2023/03/30 07:59:28;;;;;;;7.13;2.30;;;;;;;12.26;90.16;100517.84;5033776;28;20030;-92
2023/03/30 08:01:55;;;;;;;5.90;2.00;;;;;;;12.28;90.14;100525.63;5033446;28;20032;-92
2023/03/30 08:04:23;;;;;;;7.22;2.17;;;;;;;12.29;90.43;100525.59;5033962;28;20032;-92
2023/03/30 08:06:48;;;;;;;8.32;2.47;;;;;;;12.32;89.25;100535.94;5033221;28;20105;-92
2023/03/30 08:09:14;;;;;;;5.53;2.27;;;;;;;12.30;89.68;100532.50;5033726;28;20145;-92
2023/03/30 08:11:40;;;;;;;8.30;2.30;;;;;;;12.29;90.51;100537.72;5033883;28;20041;-92
2023/03/30 08:14:06;;;;;;;10.48;2.30;;;;;;;12.34;89.49;100536.72;5032779;28;20033;-92
2023/03/30 08:16:31;;;;;;;7.63;2.27;;;;;;;12.32;90.15;100535.94;5033334;28;20036;-92
2023/03/30 08:18:56;;;;;;;11.93;2.47;;;;;;;12.40;89.22;100550.47;5033228;28;20065;-92
2023/03/30 08:21:24;;;;;;;10.03;2.70;;;;;;;12.41;88.31;100553.00;5033514;28;20048;-92
2023/03/30 08:23:51;;;;;;;10.25;2.63;;;;;;;12.41;88.55;100542.59;5033738;28;20026;-92
2023/03/30 08:26:16;;;;;;;9.23;2.60;;;;;;;12.39;87.88;100544.38;5033568;28;20056;-91
2023/03/30 08:28:42;;;;;;;9.80;2.50;;;;;;;12.40;87.61;100553.06;5032986;28;20021;-91
2023/03/30 08:31:09;;;;;;;11.93;3.10;;;;;;;12.41;87.00;100549.56;5033433;28;20052;-92
2023/03/30 08:33:35;;;;;;;11.98;2.92;;;;;;;12.36;86.05;100544.50;5033495;28;20025;-91
2023/03/30 08:36:01;;;;;;;7.28;2.47;;;;;;;12.35;86.82;100548.81;5032457;28;20029;-91
2023/03/30 08:38:27;;;;;;;7.67;2.50;;;;;;;12.49;85.94;100540.66;5037271;28;20029;-93
2023/03/30 08:40:52;;;;;;;8.20;2.50;;;;;;;12.57;86.82;100536.97;5036404;28;20291;-93
2023/03/30 08:43:54;;;;;;;6.50;2.33;;;;;;;12.70;86.11;100537.47;5013400;28;20131;-93
2023/03/30 08:46:20;;;;;;;11.07;2.40;;;;;;;12.77;85.90;100546.81;5037310;28;20045;-93
2023/03/30 08:48:47;;;;;;;7.60;2.17;;;;;;;12.92;84.95;100548.13;5037860;28;20048;-92
2023/03/30 08:51:28;;;;;;;13.40;2.70;;;;;;;13.08;83.60;100549.34;5037099;28;20469;-92
2023/03/30 08:54:07;;;;;;;7.13;2.67;;;;;;;13.32;84.27;100548.66;5037313;28;20021;-92
2023/03/30 08:56:38;;;;;;;8.52;2.67;;;;;;;13.55;82.98;100542.72;5036051;28;20030;-92
2023/03/30 08:59:25;;;;;;;11.02;2.65;;;;;;;13.67;81.24;100539.72;5036888;28;20477;-92
2023/03/30 09:01:57;;;;;;;11.70;2.72;;;;;;;13.78;80.09;100541.09;5037080;28;20033;-91
2023/03/30 09:04:44;;;;;;;15.00;3.08;;;;;;;13.90;78.85;100553.75;5036900;28;20033;-92
2023/03/30 09:07:31;;;;;;;12.57;2.92;;;;;;;13.86;78.36;100560.81;5037504;28;20044;-92
2023/03/30 09:10:00;;;;;;;8.07;2.30;;;;;;;13.92;79.82;100551.06;5036827;28;20034;-92
2023/03/30 09:12:40;;;;;;;9.63;2.20;;;;;;;13.92;79.92;100551.06;5036573;28;20086;-93
2023/03/30 09:15:30;;;;;;;9.57;2.53;;;;;;;13.85;77.82;100560.84;5017034;28;20056;-93
2023/03/30 09:17:59;;;;;;;11.18;2.70;;;;;;;13.87;77.83;100564.28;5020737;28;20021;-93
2023/03/30 09:20:32;;;;;;;9.30;2.80;;;;;;;13.81;77.97;100561.88;5037160;28;20539;-92
2023/03/30 09:22:59;;;;;;;9.05;2.30;;;;;;;13.75;78.03;100571.59;5036504;28;20028;-92
2023/03/30 09:25:31;;;;;;;6.85;2.20;;;;;;;13.68;79.44;100567.50;5036577;28;20028;-93
2023/03/30 09:28:12;;;;;;;8.70;2.17;;;;;;;13.74;77.81;100582.09;5036989;28;20029;-93
2023/03/30 09:30:59;;;;;;;9.43;2.55;;;;;;;13.52;76.23;100584.53;5036269;28;20033;-83
2023/03/30 09:33:45;;;;;;;11.30;2.70;;;;;;;13.44;76.67;100582.19;5036481;28;20033;-92
2023/03/30 09:36:10;;;;;;;13.50;3.05;;;;;;;13.42;77.43;100600.47;5040524;28;20482;-92
2023/03/30 09:38:37;;;;;;;13.40;3.13;;;;;;;13.36;76.16;100587.59;5035889;22;20092;-92
2023/03/30 09:41:06;;;;;;;11.18;3.30;;;;;;;13.52;76.52;100589.75;5016492;28;20025;-91
2023/03/30 09:43:43;;;;;;;13.50;3.30;;;;;;;13.74;74.79;100601.19;5015905;28;20041;-91
2023/03/30 09:46:09;;;;;;;12.95;3.20;;;;;;;13.94;73.67;100597.09;5016191;28;20037;-92
2023/03/30 09:48:53;;;;;;;14.68;3.50;;;;;;;14.04;71.83;100592.41;5015797;28;20406;-91
2023/03/30 09:51:26;;;;;;;13.68;3.95;;;;;;;14.09;71.92;100595.72;5016770;28;20121;-92
2023/03/30 09:53:58;;;;;;;11.73;3.25;;;;;;;14.01;72.58;100610.78;5016404;28;20021;-92
2023/03/30 09:56:27;;;;;;;11.43;3.40;;;;;;;13.97;72.68;100603.97;5016834;28;20049;-88
2023/03/30 09:58:54;;;;;;;12.48;3.28;;;;;;;13.89;72.94;100599.84;5015677;28;20059;-92
2023/03/30 10:01:20;;;;;;;12.20;3.55;;;;;;;13.97;72.65;100601.34;5016019;28;20478;-91
2023/03/30 10:04:06;;;;;;;12.38;3.20;;;;;;;13.97;72.47;100607.41;5015592;28;20049;-90
2023/03/30 10:06:37;;;;;;;15.07;3.20;;;;;;;14.03;71.99;100612.44;5015568;28;20532;-90
2023/03/30 10:09:11;;;;;;;12.75;3.47;;;;;;;14.02;73.33;100621.16;5016168;28;20030;-91
2023/03/30 10:11:43;;;;;;;9.70;2.78;;;;;;;14.08;73.55;100614.88;5016098;28;20022;-91
2023/03/30 10:14:31;;;;;;;13.43;3.17;;;;;;;14.13;71.99;100617.34;5016012;28;20048;-91
2023/03/30 10:17:00;;;;;;;12.80;2.95;;;;;;;14.12;70.43;100620.84;5015473;28;20057;-91
2023/03/30 10:19:27;;;;;;;11.25;3.08;;;;;;;13.98;71.53;100623.94;5016121;28;20029;-91
2023/03/30 10:21:54;;;;;;;10.38;3.10;;;;;;;14.08;71.71;100621.84;5015420;28;20029;-89
2023/03/30 10:24:24;;;;;;;11.02;3.35;;;;;;;13.93;71.44;100615.38;5015742;28;20485;-91
2023/03/30 10:27:14;;;;;;;9.43;2.75;;;;;;;14.02;72.08;100623.78;5015239;28;20470;-91
2023/03/30 10:29:49;;;;;;;8.00;2.60;;;;;;;14.19;73.59;100624.94;5014618;28;20028;-90
2023/03/30 10:32:19;;;;;;;10.02;2.97;;;;;;;14.49;68.89;100627.44;5015434;28;20022;-89
2023/03/30 10:34:50;;;;;;;13.43;3.53;;;;;;;14.61;71.45;100623.50;5014849;28;20511;-89
2023/03/30 10:37:29;;;;;;;11.00;3.33;;;;;;;14.87;71.09;100621.75;5015318;28;20048;-90
2023/03/30 10:39:57;;;;;;;10.48;3.03;;;;;;;15.12;70.21;100609.50;5014832;28;20042;-90
2023/03/30 10:42:25;;;;;;;7.97;2.70;;;;;;;15.14;70.68;100627.72;5015360;28;20026;-90
2023/03/30 10:45:10;;;;;;;10.52;3.22;;;;;;;15.12;67.79;100619.06;5015129;28;20080;-90
2023/03/30 10:47:56;;;;;;;11.68;3.58;;;;;;;15.00;66.45;100624.75;5015217;28;20109;-88
2023/03/30 10:50:40;;;;;;;10.30;3.17;;;;;;;14.81;67.82;100623.69;4995481;28;20033;-90
2023/03/30 10:53:30;;;;;;;8.80;3.08;;;;;;;14.76;69.51;100619.53;4995345;28;20379;-90
2023/03/30 10:56:15;;;;;;;9.85;3.03;;;;;;;14.75;68.10;100617.84;4994807;28;20357;-89
2023/03/30 10:59:11;;;;;;;12.32;3.03;;;;;;;14.62;67.86;100620.00;4994339;28;20398;-89
2023/03/30 11:01:52;;;;;;;13.55;2.92;;;;;;;14.72;67.95;100628.41;4994395;28;20026;-90
2023/03/30 11:04:22;;;;;;;9.65;2.50;;;;;;;14.77;68.93;100614.25;4994937;28;20030;-90
2023/03/30 11:06:51;;;;;;;8.27;2.40;;;;;;;14.86;68.31;100628.72;4994250;28;20054;-90
2023/03/30 11:09:33;;;;;;;9.15;2.70;;;;;;;14.85;66.72;100631.41;4994907;28;20030;-90
2023/03/30 11:12:14;;;;;;;9.80;2.95;;;;;;;14.87;69.59;100634.81;4993935;28;20058;-89
2023/03/30 11:14:55;;;;;;;10.23;3.17;;;;;;;15.02;67.74;100621.19;4994869;28;20412;-90
2023/03/30 11:17:26;;;;;;;10.40;3.30;;;;;;;15.16;69.16;100628.50;4994779;28;20027;-89
2023/03/30 11:20:04;;;;;;;12.05;3.63;;;;;;;15.37;65.58;100625.97;5013575;28;20037;-88
2023/03/30 11:22:47;;;;;;;13.38;3.25;;;;;;;15.52;65.77;100617.53;5014322;28;20116;-89
2023/03/30 11:25:23;;;;;;;11.68;3.25;;;;;;;15.69;67.38;100624.72;5015029;28;20018;-89
2023/03/30 11:27:59;;;;;;;9.18;2.90;;;;;;;15.71;66.21;100617.63;5013819;28;20560;-89
2023/03/30 11:30:28;;;;;;;9.13;2.92;;;;;;;15.68;66.24;100620.41;5014537;28;20049;-90
2023/03/30 11:33:27;;;;;;;7.75;2.65;;;;;;;15.77;67.38;100620.94;5014191;28;20037;-89
2023/03/30 11:36:01;;;;;;;7.85;2.70;;;;;;;15.84;66.68;100622.38;5014417;28;20384;-90
2023/03/30 11:38:59;;;;;;;9.05;3.15;;;;;;;15.93;65.34;100618.56;5013638;28;20544;-90
2023/03/30 11:41:47;;;;;;;9.77;3.15;;;;;;;16.11;65.03;100614.34;5010723;28;20042;-89